Time;durP1;ratioP1;P1;durP2;ratioP2;P2;SDS_P1;SDS_P2;PMS_P1;PMS_P2;Temp;Humidity;BMP_temperature;BMP_pressure;BME280_temperature;BME280_humidity;BME280_pressure;Samples;Min_cycle;Max_cycle;Signal;HPM_P1;HPM_P2
2023/03/08 00:01:51;;;;;;;17.55;15.18;;;1.30;99.90;;;;;;4985305;28;20085;-74
2023/03/08 00:04:17;;;;;;;17.45;15.93;;;1.30;99.90;;;;;;4987529;28;20097;-74
2023/03/08 00:06:43;;;;;;;17.58;15.60;;;1.30;99.90;;;;;;4970346;28;20061;-74
2023/03/08 00:09:09;;;;;;;16.73;15.02;;;1.30;99.90;;;;;;4987277;28;20412;-74
2023/03/08 00:11:34;;;;;;;17.10;15.30;;;1.30;99.90;;;;;;4969625;28;20041;-74
2023/03/08 00:14:02;;;;;;;17.60;15.80;;;1.30;99.90;;;;;;4987450;28;20035;-74
2023/03/08 00:16:27;;;;;;;15.38;13.90;;;1.30;99.90;;;;;;4987319;28;20387;-74
2023/03/08 00:18:53;;;;;;;19.83;16.90;;;1.30;99.90;;;;;;4969070;28;20055;-74
2023/03/08 00:21:20;;;;;;;17.85;15.65;;;1.30;99.90;;;;;;4985997;28;20181;-74
2023/03/08 00:23:46;;;;;;;16.70;15.25;;;1.30;99.90;;;;;;4987303;28;20046;-74
2023/03/08 00:26:13;;;;;;;18.67;16.98;;;1.30;99.90;;;;;;4985875;28;20031;-74
2023/03/08 00:28:39;;;;;;;17.60;15.27;;;1.30;99.90;;;;;;4987116;28;20780;-74
2023/03/08 00:31:12;;;;;;;18.83;16.10;;;1.30;99.90;;;;;;4985883;28;20472;-74
2023/03/08 00:33:38;;;;;;;18.95;16.95;;;1.30;99.90;;;;;;4985747;28;20447;-74
2023/03/08 00:36:05;;;;;;;16.65;15.02;;;1.30;99.90;;;;;;4987222;28;20411;-74
2023/03/08 00:38:33;;;;;;;19.58;17.45;;;1.30;99.90;;;;;;4985849;28;20039;-74
2023/03/08 00:40:59;;;;;;;17.10;15.48;;;1.30;99.90;;;;;;4969643;28;20050;-74
2023/03/08 00:43:26;;;;;;;18.27;16.40;;;1.30;99.90;;;;;;4985838;28;20035;-74
2023/03/08 00:45:52;;;;;;;16.73;14.95;;;1.30;99.90;;;;;;4985924;28;20089;-74
2023/03/08 00:48:18;;;;;;;18.23;16.10;;;1.30;99.90;;;;;;4985365;28;20035;-74
2023/03/08 00:50:44;;;;;;;23.48;17.10;;;1.30;99.90;;;;;;4953619;28;20480;-74
2023/03/08 00:53:10;;;;;;;20.30;17.98;;;1.30;99.90;;;;;;4985659;28;20031;-74
2023/03/08 00:55:36;;;;;;;20.92;19.10;;;1.40;99.90;;;;;;5002020;28;20031;-74
2023/03/08 00:58:02;;;;;;;20.70;18.48;;;1.40;99.90;;;;;;4988250;28;20042;-74
2023/03/08 01:00:29;;;;;;;21.38;18.08;;;1.40;99.90;;;;;;4988334;28;20051;-74
2023/03/08 01:02:56;;;;;;;21.70;18.63;;;1.40;99.90;;;;;;4988281;28;20047;-74
2023/03/08 01:05:22;;;;;;;19.55;17.55;;;1.40;99.90;;;;;;5004533;28;20026;-74
2023/03/08 01:07:48;;;;;;;19.60;17.55;;;1.40;99.90;;;;;;4988137;28;20042;-74
2023/03/08 01:10:14;;;;;;;24.23;21.40;;;1.40;99.90;;;;;;4987849;28;20027;-74
2023/03/08 01:12:41;;;;;;;22.20;19.55;;;1.40;99.90;;;;;;4989656;28;20070;-74
2023/03/08 01:15:07;;;;;;;20.58;18.08;;;1.40;99.90;;;;;;4988053;28;20050;-74
2023/03/08 01:17:33;;;;;;;20.50;18.45;;;1.40;99.90;;;;;;4987874;28;20133;-74
2023/03/08 01:19:59;;;;;;;22.30;19.95;;;1.40;99.90;;;;;;4968828;28;20038;-74
2023/03/08 01:22:25;;;;;;;21.83;19.63;;;1.30;99.90;;;;;;4976083;28;20023;-74
2023/03/08 01:24:51;;;;;;;21.58;19.20;;;1.30;99.90;;;;;;4988661;28;20034;-74
2023/03/08 01:27:18;;;;;;;24.40;20.42;;;1.30;99.90;;;;;;4987922;28;20031;-74
2023/03/08 01:29:44;;;;;;;25.30;21.20;;;1.30;99.90;;;;;;4988001;28;20372;-74
2023/03/08 01:32:10;;;;;;;21.42;19.55;;;1.30;99.90;;;;;;4987424;28;20019;-74
2023/03/08 01:34:37;;;;;;;22.00;19.67;;;1.30;99.90;;;;;;4987850;28;20042;-74
2023/03/08 01:37:03;;;;;;;20.23;18.33;;;1.30;99.90;;;;;;4987641;28;20023;-74
2023/03/08 01:39:29;;;;;;;24.67;20.98;;;1.30;99.90;;;;;;4971511;28;20049;-74
2023/03/08 01:41:54;;;;;;;23.13;19.30;;;1.30;99.90;;;;;;4987766;28;20480;-74
2023/03/08 01:44:23;;;;;;;20.63;18.63;;;1.30;99.90;;;;;;4987682;28;20034;-74
2023/03/08 01:46:52;;;;;;;19.95;16.02;;;1.40;99.90;;;;;;4987706;28;20027;-74
2023/03/08 01:49:30;;;;;;;19.73;17.38;;;1.40;99.90;;;;;;4988951;28;20033;-74
2023/03/08 01:52:05;;;;;;;21.15;19.05;;;1.40;99.90;;;;;;4971553;28;20055;-74
2023/03/08 01:54:50;;;;;;;34.05;20.92;;;1.40;99.90;;;;;;4987453;28;20049;-74
2023/03/08 01:57:27;;;;;;;24.55;20.05;;;1.40;99.90;;;;;;4987598;28;20030;-74
2023/03/08 01:59:56;;;;;;;20.55;18.60;;;1.40;99.90;;;;;;4932102;28;1607934;-74
2023/03/08 02:02:26;;;;;;;25.38;19.23;;;1.40;99.90;;;;;;4988254;28;20073;-74
2023/03/08 02:04:52;;;;;;;19.83;17.88;;;1.40;99.90;;;;;;4988528;28;20027;-74
2023/03/08 02:07:18;;;;;;;19.40;17.42;;;1.40;99.90;;;;;;4988171;28;20022;-74
2023/03/08 02:09:45;;;;;;;19.27;17.27;;;1.40;99.90;;;;;;4988074;28;20089;-74
2023/03/08 02:12:12;;;;;;;21.10;18.98;;;1.30;99.90;;;;;;4988333;28;20054;-74
2023/03/08 02:14:40;;;;;;;21.58;19.48;;;1.30;99.90;;;;;;4989469;28;20049;-74
2023/03/08 02:17:07;;;;;;;13.68;12.13;;;1.30;99.90;;;;;;4988029;28;20027;-74
2023/03/08 02:19:41;;;;;;;22.00;19.75;;;1.30;99.90;;;;;;4988361;28;20034;-74
2023/03/08 02:22:13;;;;;;;21.17;18.95;;;1.30;99.90;;;;;;4972270;28;20030;-74
2023/03/08 02:24:39;;;;;;;21.15;17.50;;;1.20;99.90;;;;;;4988080;28;20035;-74
2023/03/08 02:27:13;;;;;;;23.27;19.77;;;1.20;99.90;;;;;;4977942;28;20030;-74
2023/03/08 02:29:38;;;;;;;19.92;17.48;;;1.20;99.90;;;;;;4985011;28;20035;-74
2023/03/08 02:32:04;;;;;;;20.25;18.20;;;1.20;99.90;;;;;;4984774;28;20093;-74
2023/03/08 02:34:30;;;;;;;21.55;19.30;;;1.20;99.90;;;;;;4968597;28;20503;-74
2023/03/08 02:36:58;;;;;;;18.42;16.55;;;1.20;99.90;;;;;;4984768;28;20096;-74
2023/03/08 02:39:23;;;;;;;16.90;15.20;;;1.20;99.90;;;;;;4984690;28;20046;-74
2023/03/08 02:41:49;;;;;;;17.15;15.52;;;1.30;99.90;;;;;;4969564;28;20035;-74
2023/03/08 02:44:15;;;;;;;17.17;15.50;;;1.30;99.90;;;;;;4969773;29;20039;-75
2023/03/08 02:46:41;;;;;;;18.98;15.77;;;1.30;99.90;;;;;;4968293;28;20031;-75
2023/03/08 02:49:07;;;;;;;16.38;14.80;;;1.20;99.90;;;;;;4968987;28;20036;-76
2023/03/08 02:51:33;;;;;;;16.38;14.65;;;1.30;99.90;;;;;;4985836;28;20024;-75
2023/03/08 02:53:59;;;;;;;16.83;15.27;;;1.30;99.90;;;;;;4968885;28;20071;-75
2023/03/08 02:56:25;;;;;;;18.88;14.75;;;1.30;99.90;;;;;;4968036;28;20047;-75
2023/03/08 02:58:50;;;;;;;18.10;16.25;;;1.30;99.90;;;;;;4984390;28;20035;-75
2023/03/08 03:01:16;;;;;;;16.48;14.48;;;1.30;99.90;;;;;;4967904;28;20063;-75
2023/03/08 03:03:42;;;;;;;17.02;15.48;;;1.30;99.90;;;;;;4984105;28;20042;-75
2023/03/08 03:06:17;;;;;;;15.63;14.32;;;1.30;99.90;;;;;;4985311;28;20452;-75
2023/03/08 03:08:46;;;;;;;14.48;13.13;;;1.30;99.90;;;;;;4987236;28;20027;-75
2023/03/08 03:11:14;;;;;;;17.05;13.43;;;1.30;99.90;;;;;;4988445;28;20023;-75
2023/03/08 03:13:40;;;;;;;15.80;13.30;;;1.30;99.90;;;;;;4971184;28;20034;-75
2023/03/08 03:16:08;;;;;;;16.45;14.85;;;1.30;99.90;;;;;;4970754;28;20491;-75
2023/03/08 03:18:34;;;;;;;16.63;15.13;;;1.30;99.90;;;;;;4980960;28;20059;-75
2023/03/08 03:21:08;;;;;;;18.08;16.30;;;1.30;99.90;;;;;;4967113;28;20035;-75
2023/03/08 03:23:35;;;;;;;19.27;15.77;;;1.30;99.90;;;;;;4969099;29;20038;-75
2023/03/08 03:26:09;;;;;;;17.77;16.05;;;1.40;99.90;;;;;;4983745;28;20480;-75
2023/03/08 03:28:35;;;;;;;17.40;15.75;;;1.30;99.90;;;;;;4983619;28;20046;-75
2023/03/08 03:31:07;;;;;;;18.98;16.70;;;1.20;99.90;;;;;;4976876;28;20019;-75
2023/03/08 03:33:33;;;;;;;19.63;17.58;;;1.20;99.90;;;;;;4986809;28;20106;-74
2023/03/08 03:35:59;;;;;;;20.00;18.13;;;1.30;99.90;;;;;;4986625;28;20095;-75
2023/03/08 03:38:26;;;;;;;19.92;17.83;;;1.30;99.90;;;;;;4986524;28;20034;-75
2023/03/08 03:41:06;;;;;;;20.25;18.33;;;1.30;99.90;;;;;;4954746;28;20031;-75
2023/03/08 03:43:32;;;;;;;;;;;1.30;99.90;;;;;;4986921;28;20070;-75
2023/03/08 03:46:02;;;;;;;17.52;15.07;;;1.30;99.90;;;;;;4986652;28;19997;-75
2023/03/08 03:48:29;;;;;;;23.98;21.40;;;1.30;99.90;;;;;;4986348;28;20027;-75
2023/03/08 03:50:57;;;;;;;19.95;18.00;;;1.30;99.90;;;;;;4970562;28;20023;-75
2023/03/08 03:53:23;;;;;;;17.77;16.08;;;1.30;99.90;;;;;;4986412;28;20023;-75
2023/03/08 03:55:51;;;;;;;17.02;15.25;;;1.30;99.90;;;;;;4986679;28;20126;-75
2023/03/08 03:58:17;;;;;;;19.65;17.67;;;1.20;99.90;;;;;;4985985;28;20022;-75
2023/03/08 04:00:43;;;;;;;21.70;17.75;;;1.30;99.90;;;;;;4985765;28;20504;-75
2023/03/08 04:03:19;;;;;;;20.75;17.50;;;1.30;99.90;;;;;;4971676;28;20457;-75
2023/03/08 04:05:45;;;;;;;18.83;16.30;;;1.20;99.90;;;;;;4986408;28;20031;-75
2023/03/08 04:08:11;;;;;;;18.38;16.52;;;1.20;99.90;;;;;;4969927;28;20398;-75
2023/03/08 04:10:40;;;;;;;17.77;15.93;;;1.30;99.90;;;;;;4987414;28;20051;-75
2023/03/08 04:13:08;;;;;;;21.02;16.33;;;1.30;99.90;;;;;;4986176;28;20031;-75
2023/03/08 04:15:33;;;;;;;18.45;16.60;;;1.30;99.90;;;;;;4969949;28;20035;-75
2023/03/08 04:18:03;;;;;;;;;;;1.30;99.90;;;;;;4987395;28;20031;-73
2023/03/08 04:20:32;;;;;;;21.42;18.13;;;1.30;99.90;;;;;;4986146;28;19910;-75
2023/03/08 04:22:59;;;;;;;19.40;17.25;;;1.30;99.90;;;;;;4986087;28;20125;-75
2023/03/08 04:25:31;;;;;;;24.52;17.73;;;1.30;99.90;;;;;;4985921;28;20049;-75
2023/03/08 04:27:59;;;;;;;18.52;15.00;;;1.20;99.90;;;;;;4972317;28;20031;-74
2023/03/08 04:30:25;;;;;;;22.52;17.80;;;1.20;99.90;;;;;;4982833;28;20395;-74
2023/03/08 04:32:53;;;;;;;19.13;16.67;;;1.20;99.90;;;;;;4982536;28;20397;-75
2023/03/08 04:35:22;;;;;;;20.17;14.57;;;1.20;99.90;;;;;;4982676;28;20023;-75
2023/03/08 04:37:52;;;;;;;14.10;12.57;;;1.20;99.90;;;;;;4973929;28;20057;-75
2023/03/08 04:40:20;;;;;;;11.40;9.73;;;1.10;99.90;;;;;;4985567;28;20396;-75
2023/03/08 04:42:52;;;;;;;15.50;13.98;;;1.10;99.90;;;;;;4970485;28;20030;-75
2023/03/08 04:45:24;;;;;;;13.82;12.60;;;1.10;99.90;;;;;;5001689;28;20118;-74
2023/03/08 04:47:52;;;;;;;16.08;13.57;;;1.00;99.90;;;;;;4985412;28;20070;-74
2023/03/08 04:50:19;;;;;;;18.50;16.58;;;1.10;99.90;;;;;;4985589;28;20083;-75
2023/03/08 04:52:45;;;;;;;17.90;15.52;;;1.00;99.90;;;;;;4986981;28;20042;-74
2023/03/08 04:55:11;;;;;;;17.45;15.68;;;1.00;99.90;;;;;;4985923;28;20361;-75
2023/03/08 04:57:37;;;;;;;16.77;14.52;;;1.10;99.90;;;;;;4985255;28;20037;-75
2023/03/08 05:00:04;;;;;;;19.77;17.67;;;1.00;99.90;;;;;;4986729;28;20051;-74
2023/03/08 05:02:33;;;;;;;21.17;17.52;;;1.00;99.90;;;;;;4985876;28;20038;-75
2023/03/08 05:05:01;;;;;;;20.77;17.25;;;1.00;99.90;;;;;;4985510;28;20043;-75
2023/03/08 05:07:27;;;;;;;21.33;19.02;;;0.90;99.90;;;;;;4986631;28;20119;-75
2023/03/08 05:09:54;;;;;;;19.20;17.38;;;1.00;99.90;;;;;;4985570;28;20027;-75
2023/03/08 05:12:20;;;;;;;18.20;16.42;;;1.00;99.90;;;;;;4985586;28;20030;-75
2023/03/08 05:14:53;;;;;;;19.40;17.05;;;1.00;99.90;;;;;;4985354;28;20031;-75
2023/03/08 05:17:19;;;;;;;21.25;15.40;;;0.90;99.90;;;;;;4985409;28;20123;-75
2023/03/08 05:19:45;;;;;;;15.77;14.25;;;0.90;99.90;;;;;;4985466;28;20031;-74
2023/03/08 05:22:13;;;;;;;12.48;11.13;;;0.90;99.90;;;;;;4985347;28;20395;-74
2023/03/08 05:24:45;;;;;;;17.48;15.07;;;0.80;99.90;;;;;;4985549;28;20033;-75
2023/03/08 05:27:12;;;;;;;14.57;13.13;;;0.80;99.90;;;;;;4985010;28;20029;-74
2023/03/08 05:29:38;;;;;;;13.68;10.75;;;0.80;99.90;;;;;;4985373;28;20034;-74
2023/03/08 05:32:05;;;;;;;10.98;9.90;;;0.80;99.90;;;;;;4985504;28;20023;-74
2023/03/08 05:34:32;;;;;;;10.35;9.18;;;0.80;99.90;;;;;;4969317;28;20062;-74
2023/03/08 05:37:00;;;;;;;9.07;8.18;;;0.70;99.90;;;;;;4984924;28;20083;-75
2023/03/08 05:39:27;;;;;;;8.45;7.55;;;0.70;99.90;;;;;;4969431;28;20047;-74
2023/03/08 05:41:59;;;;;;;12.88;9.77;;;0.60;99.90;;;;;;4985517;28;20129;-74
2023/03/08 05:44:30;;;;;;;9.88;7.82;;;0.60;99.90;;;;;;4988447;28;20058;-74
2023/03/08 05:46:58;;;;;;;9.98;9.13;;;0.70;99.90;;;;;;4972860;28;20034;-75
2023/03/08 05:49:25;;;;;;;8.98;7.70;;;0.70;99.90;;;;;;4988734;28;20039;-74
2023/03/08 05:51:51;;;;;;;9.13;7.82;;;0.70;99.90;;;;;;4972567;28;20058;-74
2023/03/08 05:54:18;;;;;;;7.38;6.78;;;0.60;99.90;;;;;;5007091;28;20122;-74
2023/03/08 05:56:47;;;;;;;6.15;5.65;;;0.60;99.90;;;;;;4990727;28;20062;-74
2023/03/08 05:59:23;;;;;;;9.65;8.77;;;0.60;99.90;;;;;;5007009;28;20074;-74
2023/03/08 06:01:50;;;;;;;9.93;8.95;;;0.50;99.90;;;;;;4990937;28;20518;-74
2023/03/08 06:04:23;;;;;;;11.20;10.02;;;0.60;99.90;;;;;;4990718;28;20054;-74
2023/03/08 06:06:50;;;;;;;10.30;9.02;;;0.60;99.90;;;;;;4974632;28;20030;-74
2023/03/08 06:09:17;;;;;;;9.27;8.30;;;0.50;99.90;;;;;;4990555;28;20042;-74
2023/03/08 06:11:43;;;;;;;11.25;10.13;;;0.50;99.90;;;;;;4990675;28;20051;-74
2023/03/08 06:14:09;;;;;;;12.75;11.20;;;0.60;99.90;;;;;;5007076;28;20050;-74
2023/03/08 06:16:35;;;;;;;16.05;12.85;;;0.60;99.90;;;;;;4990443;28;20033;-74
2023/03/08 06:19:02;;;;;;;16.58;12.95;;;0.60;99.90;;;;;;4990349;28;20049;-74
2023/03/08 06:21:29;;;;;;;12.90;11.60;;;0.60;99.90;;;;;;5006761;28;20072;-74
2023/03/08 06:23:59;;;;;;;14.98;13.48;;;0.60;99.90;;;;;;5006821;28;20061;-74
2023/03/08 06:26:25;;;;;;;14.95;13.02;;;0.60;99.90;;;;;;4988250;28;20046;-74
2023/03/08 06:28:51;;;;;;;17.52;13.80;;;0.60;99.90;;;;;;4970237;28;20481;-74
2023/03/08 06:31:18;;;;;;;14.43;12.90;;;0.60;99.90;;;;;;4984893;28;20026;-74
2023/03/08 06:33:44;;;;;;;15.15;13.55;;;0.60;99.90;;;;;;4973577;28;20054;-74
2023/03/08 06:36:17;;;;;;;11.63;10.40;;;0.60;99.90;;;;;;4988058;28;20029;-74
2023/03/08 06:38:45;;;;;;;9.52;7.82;;;0.50;99.90;;;;;;4987908;28;20443;-74
2023/03/08 06:41:12;;;;;;;14.25;12.82;;;0.50;99.90;;;;;;4987696;28;20022;-74
2023/03/08 06:43:38;;;;;;;14.05;12.27;;;0.50;99.90;;;;;;4971589;28;20400;-74
2023/03/08 06:46:05;;;;;;;14.13;12.57;;;0.50;99.90;;;;;;4987761;28;20049;-74
2023/03/08 06:48:32;;;;;;;10.45;9.43;;;0.50;99.90;;;;;;4987657;28;20031;-75
2023/03/08 06:50:58;;;;;;;14.13;10.68;;;0.50;99.90;;;;;;4987843;28;20045;-74
2023/03/08 06:53:24;;;;;;;15.70;9.63;;;0.50;99.90;;;;;;4987622;28;20113;-74
2023/03/08 06:55:57;;;;;;;13.45;9.77;;;0.50;99.90;;;;;;4967096;28;20082;-75
2023/03/08 06:58:23;;;;;;;11.70;9.85;;;0.50;99.90;;;;;;4967990;28;20500;-74
2023/03/08 07:00:49;;;;;;;12.05;10.95;;;0.50;99.90;;;;;;4969259;28;20059;-74
2023/03/08 07:03:15;;;;;;;15.27;10.18;;;0.50;99.90;;;;;;4969374;28;20041;-75
2023/03/08 07:05:41;;;;;;;6.78;6.18;;;0.50;99.90;;;;;;4986776;28;20033;-74
2023/03/08 07:08:08;;;;;;;6.63;6.03;;;0.50;99.90;;;;;;4988583;28;20143;-75
2023/03/08 07:10:34;;;;;;;9.05;8.25;;;0.50;99.90;;;;;;4988444;28;20023;-74
2023/03/08 07:13:00;;;;;;;8.73;7.93;;;0.50;99.90;;;;;;4971291;28;20106;-75
2023/03/08 07:15:26;;;;;;;11.30;8.00;;;0.50;99.90;;;;;;4987013;28;20117;-75
2023/03/08 07:17:57;;;;;;;9.27;8.48;;;0.50;99.90;;;;;;4988279;28;20039;-75
2023/03/08 07:20:24;;;;;;;11.23;10.07;;;0.50;99.90;;;;;;4987288;28;20373;-75
2023/03/08 07:22:50;;;;;;;11.20;10.02;;;0.50;99.90;;;;;;4987061;28;20069;-75
2023/03/08 07:25:18;;;;;;;12.10;10.15;;;0.50;99.90;;;;;;4987908;28;20038;-76
2023/03/08 07:27:44;;;;;;;13.23;11.27;;;0.50;99.90;;;;;;4986937;28;20026;-75
2023/03/08 07:30:13;;;;;;;14.32;11.27;;;0.50;99.90;;;;;;4987088;28;20046;-75
2023/03/08 07:32:41;;;;;;;5.53;5.15;;;0.50;99.90;;;;;;4988107;28;20126;-75
2023/03/08 07:35:09;;;;;;;11.52;10.35;;;0.50;99.90;;;;;;4985411;28;20098;-75
2023/03/08 07:37:35;;;;;;;10.35;9.32;;;0.50;99.90;;;;;;4988016;28;20086;-76
2023/03/08 07:40:01;;;;;;;9.48;8.05;;;0.50;99.90;;;;;;4986842;28;20035;-75
2023/03/08 07:42:27;;;;;;;13.80;11.00;;;0.50;99.90;;;;;;4985819;28;20042;-75
2023/03/08 07:44:58;;;;;;;9.68;8.85;;;0.50;99.90;;;;;;4974895;28;20035;-75
2023/03/08 07:47:24;;;;;;;13.63;12.27;;;0.40;99.90;;;;;;4985988;28;20041;-75
2023/03/08 07:49:50;;;;;;;12.07;10.88;;;0.50;99.90;;;;;;4986512;28;20022;-75
2023/03/08 07:52:16;;;;;;;12.82;11.63;;;0.50;99.90;;;;;;4986559;28;20031;-75
2023/03/08 07:54:42;;;;;;;11.00;9.98;;;0.50;99.90;;;;;;4983521;28;20562;-75
2023/03/08 07:57:13;;;;;;;11.65;10.52;;;0.50;99.90;;;;;;5002915;28;20042;-75
2023/03/08 07:59:39;;;;;;;10.60;8.55;;;0.60;99.90;;;;;;4986432;28;20062;-75
2023/03/08 08:02:05;;;;;;;11.68;10.60;;;0.40;99.90;;;;;;4985860;28;20122;-75
2023/03/08 08:04:34;;;;;;;11.80;10.52;;;0.40;99.90;;;;;;4986134;28;20484;-75
2023/03/08 08:07:00;;;;;;;7.80;7.22;;;0.50;99.90;;;;;;4982109;28;20035;-75
2023/03/08 08:09:26;;;;;;;11.68;10.55;;;0.50;99.90;;;;;;4986166;28;20062;-75
2023/03/08 08:11:52;;;;;;;12.13;10.93;;;0.50;99.90;;;;;;4987449;28;20038;-74
2023/03/08 08:14:17;;;;;;;14.75;12.10;;;0.50;99.90;;;;;;4987494;28;20139;-74
2023/03/08 08:16:43;;;;;;;12.20;11.00;;;0.50;99.90;;;;;;4986393;28;20031;-75
2023/03/08 08:19:11;;;;;;;13.35;10.68;;;0.50;99.90;;;;;;4987067;28;20046;-75
2023/03/08 08:21:37;;;;;;;13.75;12.38;;;0.50;99.90;;;;;;4986236;28;20042;-75
2023/03/08 08:24:03;;;;;;;14.13;12.68;;;0.50;99.90;;;;;;4986117;28;20031;-75
2023/03/08 08:26:29;;;;;;;13.93;12.55;;;0.50;99.90;;;;;;4986870;28;20038;-74
2023/03/08 08:28:55;;;;;;;14.35;12.90;;;0.60;99.90;;;;;;4985918;28;20090;-74
2023/03/08 08:31:23;;;;;;;17.63;15.93;;;0.60;99.90;;;;;;4987189;28;20476;-75
2023/03/08 08:33:50;;;;;;;16.48;15.05;;;0.60;99.90;;;;;;4987216;28;20110;-74
2023/03/08 08:36:19;;;;;;;23.95;21.13;;;0.60;99.90;;;;;;4987286;28;20027;-74
2023/03/08 08:38:45;;;;;;;20.55;17.67;;;0.70;99.90;;;;;;4986087;28;20027;-74
2023/03/08 08:41:14;;;;;;;18.65;16.63;;;0.70;99.90;;;;;;4986466;28;20031;-75
2023/03/08 08:43:40;;;;;;;25.10;18.25;;;0.80;99.90;;;;;;4986558;28;20210;-75
2023/03/08 08:46:06;;;;;;;17.73;15.95;;;0.80;99.90;;;;;;4982114;28;20059;-74
2023/03/08 08:48:33;;;;;;;22.60;17.85;;;0.80;99.90;;;;;;4972969;28;20038;-75
2023/03/08 08:51:00;;;;;;;19.10;17.25;;;0.80;99.90;;;;;;4985889;28;20090;-75
2023/03/08 08:53:26;;;;;;;19.38;17.45;;;0.80;99.90;;;;;;4980275;28;20487;-75
2023/03/08 08:55:51;;;;;;;20.52;18.38;;;0.90;99.90;;;;;;4947176;28;20102;-75
2023/03/08 08:58:18;;;;;;;16.70;14.95;;;0.90;99.90;;;;;;4986957;28;20062;-75
2023/03/08 09:00:44;;;;;;;20.55;18.35;;;0.80;99.90;;;;;;4980237;28;20079;-75
2023/03/08 09:03:10;;;;;;;21.38;15.85;;;0.90;99.90;;;;;;4985135;28;20050;-75
2023/03/08 09:05:42;;;;;;;18.52;16.70;;;0.90;99.90;;;;;;4986238;28;20035;-75
2023/03/08 09:08:09;;;;;;;15.70;13.23;;;0.90;99.90;;;;;;4986305;28;20046;-75
2023/03/08 09:10:37;;;;;;;18.50;16.30;;;0.80;99.90;;;;;;4985578;28;20042;-75
2023/03/08 09:13:04;;;;;;;15.13;13.45;;;0.80;99.90;;;;;;4986479;28;20030;-75
2023/03/08 09:15:30;;;;;;;16.40;14.80;;;0.80;99.90;;;;;;4986576;28;20031;-75
2023/03/08 09:17:56;;;;;;;17.92;15.98;;;0.90;99.90;;;;;;4971925;28;20116;-75
2023/03/08 09:20:22;;;;;;;19.75;16.23;;;0.90;99.90;;;;;;4971317;28;20035;-75
2023/03/08 09:22:48;;;;;;;15.30;13.77;;;1.00;99.90;;;;;;4978355;28;20038;-74
2023/03/08 09:25:14;;;;;;;15.43;14.00;;;0.90;99.90;;;;;;4990241;28;20038;-75
2023/03/08 09:27:40;;;;;;;17.95;16.13;;;1.00;99.90;;;;;;4988041;28;20038;-74
2023/03/08 09:30:11;;;;;;;17.73;15.73;;;1.00;99.90;;;;;;4990402;28;20037;-75
2023/03/08 09:32:37;;;;;;;23.15;20.75;;;1.00;99.90;;;;;;4988087;28;20027;-75
2023/03/08 09:35:04;;;;;;;27.67;24.75;;;1.00;99.90;;;;;;4990200;28;20551;-75
2023/03/08 09:37:30;;;;;;;26.38;23.48;;;1.00;99.90;;;;;;4988968;28;20055;-75
2023/03/08 09:39:56;;;;;;;26.73;23.95;;;1.30;99.90;;;;;;4988823;28;20031;-75
2023/03/08 09:42:39;;;;;;;31.27;25.95;;;1.30;99.90;;;;;;4989046;28;20069;-75
2023/03/08 09:45:27;;;;;;;26.25;23.42;;;1.30;99.90;;;;;;4981523;28;20038;-75
2023/03/08 09:48:26;;;;;;;29.70;26.42;;;1.20;99.90;;;;;;4969400;28;20035;-75
2023/03/08 09:51:07;;;;;;;36.63;31.27;;;1.30;99.90;;;;;;4970575;28;20031;-75
2023/03/08 09:53:45;;;;;;;31.00;25.90;;;1.30;99.90;;;;;;4977240;28;20457;-75
2023/03/08 09:56:22;;;;;;;31.08;26.42;;;1.30;99.90;;;;;;4990022;28;20034;-75
2023/03/08 09:58:58;;;;;;;33.80;29.75;;;1.20;99.90;;;;;;4989784;28;20051;-75
2023/03/08 10:01:55;;;;;;;29.95;26.50;;;1.30;99.90;;;;;;4971648;28;20046;-75
2023/03/08 10:04:41;;;;;;;31.90;26.73;;;1.30;99.90;;;;;;4976483;28;20035;-75
2023/03/08 10:07:18;;;;;;;35.45;32.00;;;1.30;99.90;;;;;;4989848;28;20476;-75
2023/03/08 10:10:22;;;;;;;34.53;29.90;;;1.30;99.90;;;;;;4988430;28;20113;-75
2023/03/08 10:13:08;;;;;;;29.67;26.52;;;1.30;99.90;;;;;;4988393;28;20030;-75
2023/03/08 10:15:42;;;;;;;23.73;21.30;;;1.40;99.90;;;;;;4989352;28;20030;-75
2023/03/08 10:18:29;;;;;;;20.48;18.05;;;1.30;99.90;;;;;;4989640;28;20031;-75
2023/03/08 10:20:58;;;;;;;26.50;23.88;;;1.30;99.90;;;;;;4989710;28;20066;-75
2023/03/08 10:23:27;;;;;;;22.42;18.02;;;1.40;99.90;;;;;;4989646;28;20031;-75
2023/03/08 10:25:53;;;;;;;24.48;22.00;;;1.50;99.90;;;;;;4989175;28;20061;-75
2023/03/08 10:28:21;;;;;;;23.10;20.60;;;1.40;99.90;;;;;;4987899;28;20413;-75
2023/03/08 10:30:53;;;;;;;19.00;17.00;;;1.40;99.90;;;;;;4989293;28;20039;-75
2023/03/08 10:33:23;;;;;;;22.17;19.83;;;1.50;99.90;;;;;;4988068;28;20065;-75
2023/03/08 10:35:53;;;;;;;20.20;18.17;;;1.60;99.90;;;;;;4987755;28;20490;-75
2023/03/08 10:38:18;;;;;;;22.27;19.50;;;1.60;99.90;;;;;;4989162;28;20034;-75
2023/03/08 10:40:45;;;;;;;20.48;18.63;;;1.60;99.90;;;;;;4988817;28;20035;-75
2023/03/08 10:43:31;;;;;;;20.35;18.27;;;1.60;99.90;;;;;;4987648;28;20050;-75
2023/03/08 10:46:03;;;;;;;20.75;17.63;;;1.60;99.90;;;;;;4987906;28;20090;-75
2023/03/08 10:48:29;;;;;;;19.77;18.02;;;1.50;99.90;;;;;;4987584;28;20093;-75
2023/03/08 10:51:04;;;;;;;21.42;19.23;;;1.60;99.90;;;;;;4987802;28;20041;-75
2023/03/08 10:53:31;;;;;;;20.48;18.58;;;1.60;99.90;;;;;;4988750;28;20027;-74
2023/03/08 10:55:59;;;;;;;14.10;12.68;;;1.60;99.90;;;;;;4987174;28;20033;-75
2023/03/08 10:58:34;;;;;;;16.52;14.90;;;1.60;99.90;;;;;;4988847;28;20065;-74
2023/03/08 11:01:06;;;;;;;18.45;16.65;;;1.70;99.90;;;;;;4988720;28;20057;-74
2023/03/08 11:03:32;;;;;;;20.30;18.17;;;1.80;99.90;;;;;;5003639;28;20031;-74
2023/03/08 11:06:02;;;;;;;12.25;10.95;;;1.80;99.90;;;;;;4987071;28;20129;-75
2023/03/08 11:08:53;;;;;;;16.85;15.30;;;1.90;99.90;;;;;;4988700;28;20049;-74
2023/03/08 11:11:19;;;;;;;18.90;17.27;;;1.80;99.90;;;;;;4987103;28;20045;-74
2023/03/08 11:13:47;;;;;;;20.30;18.40;;;1.90;99.90;;;;;;4988457;28;20066;-75
2023/03/08 11:16:32;;;;;;;18.17;16.58;;;1.90;99.90;;;;;;4988223;28;20034;-75
2023/03/08 11:19:07;;;;;;;18.02;16.25;;;2.00;99.90;;;;;;4988391;28;20035;-75
2023/03/08 11:21:50;;;;;;;20.52;18.58;;;2.00;99.90;;;;;;4988358;28;20098;-75
2023/03/08 11:24:38;;;;;;;23.48;20.83;;;2.00;99.90;;;;;;4987080;28;20107;-75
2023/03/08 11:27:22;;;;;;;21.25;19.10;;;2.00;99.90;;;;;;4983298;28;20035;-75
2023/03/08 11:30:06;;;;;;;23.23;20.98;;;1.90;99.90;;;;;;4988262;28;20474;-75
2023/03/08 11:32:50;;;;;;;21.63;19.65;;;1.90;99.90;;;;;;4988060;28;20050;-75
2023/03/08 11:35:44;;;;;;;23.35;21.02;;;2.00;99.90;;;;;;4988009;28;20038;-75
2023/03/08 11:38:18;;;;;;;23.85;21.27;;;2.00;99.90;;;;;;4986907;28;20046;-75
2023/03/08 11:41:35;;;;;;;23.48;20.95;;;2.10;99.90;;;;;;4983988;28;20035;-75
2023/03/08 11:44:36;;;;;;;24.80;22.30;;;2.30;99.90;;;;;;4984964;28;20047;-75
2023/03/08 11:47:42;;;;;;;20.77;18.70;;;2.20;99.90;;;;;;4986724;28;20030;-75
2023/03/08 11:50:21;;;;;;;25.83;23.15;;;2.30;99.90;;;;;;4987755;28;20120;-75
2023/03/08 11:52:58;;;;;;;23.05;20.75;;;2.20;99.90;;;;;;4987381;28;20034;-75
2023/03/08 11:55:49;;;;;;;25.63;23.23;;;2.30;99.90;;;;;;4980971;28;20035;-75
2023/03/08 11:58:43;;;;;;;25.58;23.00;;;2.20;99.90;;;;;;4986116;28;20051;-75
2023/03/08 12:01:18;;;;;;;29.50;25.55;;;2.10;99.90;;;;;;4986206;28;20047;-75
2023/03/08 12:03:51;;;;;;;25.40;22.95;;;2.20;99.90;;;;;;4985587;28;20033;-76
2023/03/08 12:06:31;;;;;;;26.75;23.58;;;2.10;99.90;;;;;;4983502;28;20027;-76
2023/03/08 12:08:57;;;;;;;20.80;19.05;;;2.10;99.90;;;;;;4999638;28;20094;-75
2023/03/08 12:11:29;;;;;;;26.02;23.50;;;2.00;99.90;;;;;;4987189;28;20022;-75
2023/03/08 12:14:05;;;;;;;24.90;22.38;;;1.90;99.90;;;;;;4987053;28;20037;-76
2023/03/08 12:17:00;;;;;;;23.60;21.23;;;1.80;99.90;;;;;;4985845;28;20558;-75
2023/03/08 12:19:44;;;;;;;29.85;26.80;;;1.80;99.90;;;;;;4969818;28;20090;-75
2023/03/08 12:22:41;;;;;;;27.98;24.60;;;1.80;99.90;;;;;;4987108;28;20038;-75
2023/03/08 12:25:17;;;;;;;26.88;24.10;;;1.90;99.90;;;;;;4985469;28;20038;-76
2023/03/08 12:27:55;;;;;;;26.90;24.05;;;1.90;99.90;;;;;;4987225;28;20035;-75
2023/03/08 12:30:27;;;;;;;34.22;27.05;;;1.90;99.90;;;;;;4987309;28;20030;-75
2023/03/08 12:32:54;;;;;;;28.15;25.10;;;1.90;99.90;;;;;;4986201;28;20027;-75
2023/03/08 12:35:28;;;;;;;28.88;26.10;;;1.80;99.90;;;;;;4953976;28;20154;-75
2023/03/08 12:37:57;;;;;;;29.73;25.98;;;1.90;99.90;;;;;;4987100;28;20038;-75
2023/03/08 12:40:36;;;;;;;22.65;20.33;;;1.90;99.90;;;;;;4985929;28;20389;-75
2023/03/08 12:43:07;;;;;;;32.13;28.77;;;1.80;99.90;;;;;;4987074;28;20042;-75
2023/03/08 12:45:34;;;;;;;30.10;26.77;;;1.80;99.90;;;;;;4987311;28;20090;-75
2023/03/08 12:48:03;;;;;;;32.97;29.45;;;1.70;99.90;;;;;;4986867;28;20035;-75
2023/03/08 12:50:31;;;;;;;28.88;25.83;;;1.70;99.90;;;;;;4986911;28;20094;-75
2023/03/08 12:52:57;;;;;;;30.67;27.67;;;1.70;99.90;;;;;;4988336;28;20031;-75